sensor_id;sensor_type;location;lat;lon;timestamp;P1;durP1;ratioP1;P2;durP2;ratioP2
73557;SDS011;61829;53.286;10.434;2023-06-04T00:01:22;3.65;;;1.42;;
73557;SDS011;61829;53.286;10.434;2023-06-04T00:03:49;5.10;;;1.50;;
73557;SDS011;61829;53.286;10.434;2023-06-04T00:06:15;2.92;;;1.50;;
73557;SDS011;61829;53.286;10.434;2023-06-04T00:08:40;2.25;;;1.35;;
73557;SDS011;61829;53.286;10.434;2023-06-04T00:11:06;3.78;;;1.45;;
73557;SDS011;61829;53.286;10.434;2023-06-04T00:13:32;2.63;;;1.58;;
73557;SDS011;61829;53.286;10.434;2023-06-04T00:15:59;3.10;;;1.50;;
73557;SDS011;61829;53.286;10.434;2023-06-04T00:18:25;3.85;;;1.73;;
73557;SDS011;61829;53.286;10.434;2023-06-04T00:20:51;2.95;;;1.58;;
73557;SDS011;61829;53.286;10.434;2023-06-04T00:25:44;1.95;;;1.25;;
73557;SDS011;61829;53.286;10.434;2023-06-04T00:28:10;4.65;;;1.40;;
73557;SDS011;61829;53.286;10.434;2023-06-04T00:30:36;2.20;;;1.17;;
73557;SDS011;61829;53.286;10.434;2023-06-04T00:33:02;3.22;;;1.67;;
73557;SDS011;61829;53.286;10.434;2023-06-04T00:35:28;3.75;;;1.30;;
73557;SDS011;61829;53.286;10.434;2023-06-04T00:37:53;3.28;;;1.63;;
73557;SDS011;61829;53.286;10.434;2023-06-04T00:40:19;2.55;;;1.35;;
73557;SDS011;61829;53.286;10.434;2023-06-04T00:42:45;3.58;;;1.40;;
73557;SDS011;61829;53.286;10.434;2023-06-04T00:45:11;2.90;;;1.30;;
73557;SDS011;61829;53.286;10.434;2023-06-04T00:47:38;2.70;;;1.65;;
73557;SDS011;61829;53.286;10.434;2023-06-04T00:52:32;4.13;;;1.70;;
73557;SDS011;61829;53.286;10.434;2023-06-04T00:54:59;3.88;;;1.70;;
73557;SDS011;61829;53.286;10.434;2023-06-04T00:57:27;3.08;;;1.40;;
73557;SDS011;61829;53.286;10.434;2023-06-04T00:59:53;3.33;;;1.48;;
73557;SDS011;61829;53.286;10.434;2023-06-04T01:02:31;3.22;;;1.42;;
73557;SDS011;61829;53.286;10.434;2023-06-04T01:07:55;2.40;;;1.48;;
73557;SDS011;61829;53.286;10.434;2023-06-04T01:10:23;3.55;;;1.70;;
73557;SDS011;61829;53.286;10.434;2023-06-04T01:12:49;4.40;;;1.55;;
73557;SDS011;61829;53.286;10.434;2023-06-04T01:15:17;2.70;;;1.67;;
73557;SDS011;61829;53.286;10.434;2023-06-04T01:17:44;1.75;;;1.25;;
73557;SDS011;61829;53.286;10.434;2023-06-04T01:25:45;3.95;;;1.58;;
73557;SDS011;61829;53.286;10.434;2023-06-04T01:28:15;2.20;;;1.50;;
73557;SDS011;61829;53.286;10.434;2023-06-04T01:30:45;6.25;;;1.80;;
73557;SDS011;61829;53.286;10.434;2023-06-04T01:33:13;3.47;;;1.50;;
73557;SDS011;61829;53.286;10.434;2023-06-04T01:35:42;2.42;;;1.42;;
73557;SDS011;61829;53.286;10.434;2023-06-04T01:38:08;3.55;;;1.60;;
73557;SDS011;61829;53.286;10.434;2023-06-04T01:40:34;6.40;;;2.10;;
73557;SDS011;61829;53.286;10.434;2023-06-04T01:43:00;4.03;;;1.60;;
73557;SDS011;61829;53.286;10.434;2023-06-04T01:45:26;3.50;;;1.65;;
73557;SDS011;61829;53.286;10.434;2023-06-04T01:47:53;4.15;;;1.52;;
73557;SDS011;61829;53.286;10.434;2023-06-04T01:50:22;4.60;;;1.52;;
73557;SDS011;61829;53.286;10.434;2023-06-04T01:52:48;3.50;;;1.70;;
73557;SDS011;61829;53.286;10.434;2023-06-04T01:55:16;4.03;;;1.70;;
73557;SDS011;61829;53.286;10.434;2023-06-04T01:57:42;2.85;;;1.77;;
73557;SDS011;61829;53.286;10.434;2023-06-04T02:00:10;3.90;;;1.90;;
73557;SDS011;61829;53.286;10.434;2023-06-04T02:02:37;3.38;;;1.83;;
73557;SDS011;61829;53.286;10.434;2023-06-04T02:05:04;5.43;;;2.10;;
73557;SDS011;61829;53.286;10.434;2023-06-04T02:07:38;3.33;;;1.67;;
73557;SDS011;61829;53.286;10.434;2023-06-04T02:12:36;3.28;;;1.70;;
73557;SDS011;61829;53.286;10.434;2023-06-04T02:15:03;3.13;;;1.80;;
73557;SDS011;61829;53.286;10.434;2023-06-04T02:17:29;3.28;;;1.70;;
73557;SDS011;61829;53.286;10.434;2023-06-04T02:19:59;3.13;;;1.90;;
73557;SDS011;61829;53.286;10.434;2023-06-04T02:22:26;5.22;;;2.03;;
73557;SDS011;61829;53.286;10.434;2023-06-04T02:24:52;6.03;;;1.92;;
73557;SDS011;61829;53.286;10.434;2023-06-04T02:27:17;3.33;;;1.95;;
73557;SDS011;61829;53.286;10.434;2023-06-04T02:29:44;4.32;;;2.00;;
73557;SDS011;61829;53.286;10.434;2023-06-04T02:32:09;4.53;;;1.85;;
73557;SDS011;61829;53.286;10.434;2023-06-04T02:34:35;3.30;;;1.88;;
73557;SDS011;61829;53.286;10.434;2023-06-04T02:37:02;5.30;;;2.03;;
73557;SDS011;61829;53.286;10.434;2023-06-04T02:39:28;4.32;;;1.90;;
73557;SDS011;61829;53.286;10.434;2023-06-04T02:41:54;3.50;;;1.80;;
73557;SDS011;61829;53.286;10.434;2023-06-04T02:44:20;2.83;;;1.60;;
73557;SDS011;61829;53.286;10.434;2023-06-04T02:46:46;3.15;;;1.70;;
73557;SDS011;61829;53.286;10.434;2023-06-04T02:49:12;3.35;;;1.80;;
73557;SDS011;61829;53.286;10.434;2023-06-04T02:51:39;3.70;;;1.80;;
73557;SDS011;61829;53.286;10.434;2023-06-04T02:54:06;3.35;;;1.80;;
73557;SDS011;61829;53.286;10.434;2023-06-04T02:56:32;4.25;;;1.73;;
73557;SDS011;61829;53.286;10.434;2023-06-04T03:01:25;3.53;;;1.80;;
73557;SDS011;61829;53.286;10.434;2023-06-04T03:03:52;3.35;;;1.70;;
73557;SDS011;61829;53.286;10.434;2023-06-04T03:06:20;3.15;;;1.73;;
73557;SDS011;61829;53.286;10.434;2023-06-04T03:08:47;5.07;;;1.80;;
73557;SDS011;61829;53.286;10.434;2023-06-04T03:11:14;3.70;;;1.88;;
73557;SDS011;61829;53.286;10.434;2023-06-04T03:13:40;5.30;;;2.05;;
73557;SDS011;61829;53.286;10.434;2023-06-04T03:16:06;4.05;;;2.30;;
73557;SDS011;61829;53.286;10.434;2023-06-04T03:18:41;5.18;;;2.35;;
73557;SDS011;61829;53.286;10.434;2023-06-04T03:21:08;3.60;;;1.80;;
73557;SDS011;61829;53.286;10.434;2023-06-04T03:23:34;3.25;;;1.73;;
73557;SDS011;61829;53.286;10.434;2023-06-04T03:26:01;4.35;;;1.80;;
73557;SDS011;61829;53.286;10.434;2023-06-04T03:28:28;4.50;;;1.70;;
73557;SDS011;61829;53.286;10.434;2023-06-04T03:30:54;3.33;;;1.88;;
73557;SDS011;61829;53.286;10.434;2023-06-04T03:33:20;4.10;;;2.00;;
73557;SDS011;61829;53.286;10.434;2023-06-04T03:35:45;3.88;;;1.70;;
73557;SDS011;61829;53.286;10.434;2023-06-04T03:38:13;3.78;;;1.90;;
73557;SDS011;61829;53.286;10.434;2023-06-04T03:40:40;3.72;;;2.00;;
73557;SDS011;61829;53.286;10.434;2023-06-04T03:43:06;3.20;;;1.67;;
73557;SDS011;61829;53.286;10.434;2023-06-04T03:45:32;3.33;;;1.70;;
73557;SDS011;61829;53.286;10.434;2023-06-04T03:47:58;3.97;;;2.10;;
73557;SDS011;61829;53.286;10.434;2023-06-04T03:50:24;2.83;;;1.50;;
73557;SDS011;61829;53.286;10.434;2023-06-04T03:52:50;5.45;;;1.65;;
73557;SDS011;61829;53.286;10.434;2023-06-04T03:55:16;3.75;;;1.80;;
73557;SDS011;61829;53.286;10.434;2023-06-04T03:57:42;4.30;;;1.98;;
73557;SDS011;61829;53.286;10.434;2023-06-04T04:00:08;4.32;;;2.00;;
73557;SDS011;61829;53.286;10.434;2023-06-04T04:02:42;3.30;;;1.73;;
73557;SDS011;61829;53.286;10.434;2023-06-04T04:05:08;3.97;;;2.13;;
73557;SDS011;61829;53.286;10.434;2023-06-04T04:07:34;3.40;;;1.90;;
73557;SDS011;61829;53.286;10.434;2023-06-04T04:10:00;3.13;;;1.90;;
73557;SDS011;61829;53.286;10.434;2023-06-04T04:12:27;5.70;;;1.85;;
73557;SDS011;61829;53.286;10.434;2023-06-04T04:14:52;3.10;;;1.70;;
73557;SDS011;61829;53.286;10.434;2023-06-04T04:17:18;3.72;;;1.90;;
73557;SDS011;61829;53.286;10.434;2023-06-04T04:19:44;3.67;;;1.70;;
73557;SDS011;61829;53.286;10.434;2023-06-04T04:22:10;4.03;;;2.22;;
73557;SDS011;61829;53.286;10.434;2023-06-04T04:24:36;3.38;;;1.58;;
73557;SDS011;61829;53.286;10.434;2023-06-04T04:27:03;4.15;;;1.98;;
73557;SDS011;61829;53.286;10.434;2023-06-04T04:29:30;6.20;;;2.15;;
73557;SDS011;61829;53.286;10.434;2023-06-04T04:32:00;3.40;;;2.05;;
73557;SDS011;61829;53.286;10.434;2023-06-04T04:34:36;3.28;;;1.85;;
73557;SDS011;61829;53.286;10.434;2023-06-04T04:37:05;3.63;;;1.60;;
73557;SDS011;61829;53.286;10.434;2023-06-04T04:39:34;3.15;;;1.80;;
73557;SDS011;61829;53.286;10.434;2023-06-04T04:42:02;2.30;;;1.92;;
73557;SDS011;61829;53.286;10.434;2023-06-04T04:44:29;2.58;;;1.30;;
73557;SDS011;61829;53.286;10.434;2023-06-04T04:46:55;4.45;;;1.50;;
73557;SDS011;61829;53.286;10.434;2023-06-04T04:49:20;3.88;;;1.58;;
73557;SDS011;61829;53.286;10.434;2023-06-04T04:54:13;2.25;;;1.30;;
73557;SDS011;61829;53.286;10.434;2023-06-04T04:56:39;3.78;;;1.38;;
73557;SDS011;61829;53.286;10.434;2023-06-04T04:59:05;2.30;;;1.20;;
73557;SDS011;61829;53.286;10.434;2023-06-04T05:01:32;3.08;;;1.40;;
73557;SDS011;61829;53.286;10.434;2023-06-04T05:03:58;4.07;;;1.40;;
73557;SDS011;61829;53.286;10.434;2023-06-04T05:06:24;3.25;;;1.20;;
73557;SDS011;61829;53.286;10.434;2023-06-04T05:08:50;3.40;;;1.38;;
73557;SDS011;61829;53.286;10.434;2023-06-04T05:11:19;3.05;;;1.40;;
73557;SDS011;61829;53.286;10.434;2023-06-04T05:13:46;3.08;;;1.38;;
73557;SDS011;61829;53.286;10.434;2023-06-04T05:16:12;6.57;;;1.77;;
73557;SDS011;61829;53.286;10.434;2023-06-04T05:18:38;1.95;;;1.13;;
73557;SDS011;61829;53.286;10.434;2023-06-04T05:21:10;2.42;;;1.40;;
73557;SDS011;61829;53.286;10.434;2023-06-04T05:23:39;6.25;;;1.30;;
73557;SDS011;61829;53.286;10.434;2023-06-04T05:26:05;2.17;;;1.33;;
73557;SDS011;61829;53.286;10.434;2023-06-04T05:28:31;2.65;;;1.30;;
73557;SDS011;61829;53.286;10.434;2023-06-04T05:31:00;3.33;;;1.25;;
73557;SDS011;61829;53.286;10.434;2023-06-04T05:33:30;2.53;;;1.65;;
73557;SDS011;61829;53.286;10.434;2023-06-04T05:35:56;3.45;;;2.15;;
73557;SDS011;61829;53.286;10.434;2023-06-04T05:38:24;3.58;;;1.48;;
73557;SDS011;61829;53.286;10.434;2023-06-04T05:40:56;3.67;;;1.60;;
73557;SDS011;61829;53.286;10.434;2023-06-04T05:43:22;2.10;;;1.20;;
73557;SDS011;61829;53.286;10.434;2023-06-04T05:45:48;3.50;;;1.45;;
73557;SDS011;61829;53.286;10.434;2023-06-04T05:48:15;3.47;;;1.52;;
73557;SDS011;61829;53.286;10.434;2023-06-04T05:50:41;2.70;;;1.60;;
73557;SDS011;61829;53.286;10.434;2023-06-04T05:55:36;3.22;;;1.40;;
73557;SDS011;61829;53.286;10.434;2023-06-04T05:58:01;2.00;;;1.20;;
73557;SDS011;61829;53.286;10.434;2023-06-04T06:00:27;5.22;;;1.70;;
73557;SDS011;61829;53.286;10.434;2023-06-04T06:05:20;2.25;;;1.40;;
73557;SDS011;61829;53.286;10.434;2023-06-04T06:07:46;1.75;;;1.23;;
73557;SDS011;61829;53.286;10.434;2023-06-04T06:10:12;3.78;;;1.50;;
73557;SDS011;61829;53.286;10.434;2023-06-04T06:12:42;3.72;;;1.50;;
73557;SDS011;61829;53.286;10.434;2023-06-04T06:15:08;3.72;;;1.30;;
73557;SDS011;61829;53.286;10.434;2023-06-04T06:17:34;2.95;;;1.50;;
73557;SDS011;61829;53.286;10.434;2023-06-04T06:20:01;3.03;;;1.20;;
73557;SDS011;61829;53.286;10.434;2023-06-04T06:22:31;3.25;;;1.30;;
73557;SDS011;61829;53.286;10.434;2023-06-04T06:24:57;2.45;;;1.20;;
73557;SDS011;61829;53.286;10.434;2023-06-04T06:27:24;4.80;;;1.23;;
73557;SDS011;61829;53.286;10.434;2023-06-04T06:29:50;4.65;;;1.42;;
73557;SDS011;61829;53.286;10.434;2023-06-04T06:32:16;2.45;;;1.33;;
73557;SDS011;61829;53.286;10.434;2023-06-04T06:34:42;2.65;;;1.30;;
73557;SDS011;61829;53.286;10.434;2023-06-04T06:37:08;2.88;;;1.17;;
73557;SDS011;61829;53.286;10.434;2023-06-04T06:39:34;3.33;;;1.20;;
73557;SDS011;61829;53.286;10.434;2023-06-04T06:42:00;1.55;;;1.05;;
73557;SDS011;61829;53.286;10.434;2023-06-04T06:44:26;2.58;;;1.25;;
73557;SDS011;61829;53.286;10.434;2023-06-04T06:46:52;1.98;;;1.10;;
73557;SDS011;61829;53.286;10.434;2023-06-04T06:49:18;1.58;;;1.10;;
73557;SDS011;61829;53.286;10.434;2023-06-04T06:51:44;2.00;;;1.35;;
73557;SDS011;61829;53.286;10.434;2023-06-04T06:54:10;2.17;;;1.00;;
73557;SDS011;61829;53.286;10.434;2023-06-04T06:56:35;2.15;;;1.02;;
73557;SDS011;61829;53.286;10.434;2023-06-04T06:59:03;1.80;;;1.10;;
73557;SDS011;61829;53.286;10.434;2023-06-04T07:01:29;1.95;;;1.20;;
73557;SDS011;61829;53.286;10.434;2023-06-04T07:03:56;1.98;;;1.10;;
73557;SDS011;61829;53.286;10.434;2023-06-04T07:06:22;2.58;;;1.25;;
73557;SDS011;61829;53.286;10.434;2023-06-04T07:08:51;1.77;;;1.02;;
73557;SDS011;61829;53.286;10.434;2023-06-04T07:11:19;3.25;;;1.08;;
73557;SDS011;61829;53.286;10.434;2023-06-04T07:13:45;2.25;;;1.20;;
73557;SDS011;61829;53.286;10.434;2023-06-04T07:16:11;2.15;;;1.17;;
73557;SDS011;61829;53.286;10.434;2023-06-04T07:18:37;1.92;;;1.20;;
73557;SDS011;61829;53.286;10.434;2023-06-04T07:21:02;1.92;;;1.00;;
73557;SDS011;61829;53.286;10.434;2023-06-04T07:23:29;1.48;;;1.00;;
73557;SDS011;61829;53.286;10.434;2023-06-04T07:25:55;2.45;;;1.10;;
73557;SDS011;61829;53.286;10.434;2023-06-04T07:28:22;2.42;;;1.17;;
73557;SDS011;61829;53.286;10.434;2023-06-04T07:30:48;2.70;;;1.67;;
73557;SDS011;61829;53.286;10.434;2023-06-04T07:33:13;1.67;;;1.00;;
73557;SDS011;61829;53.286;10.434;2023-06-04T07:35:39;3.58;;;1.10;;
73557;SDS011;61829;53.286;10.434;2023-06-04T07:38:06;2.75;;;1.10;;
73557;SDS011;61829;53.286;10.434;2023-06-04T07:40:37;1.42;;;1.00;;
73557;SDS011;61829;53.286;10.434;2023-06-04T07:43:06;2.30;;;1.05;;
73557;SDS011;61829;53.286;10.434;2023-06-04T07:45:32;3.00;;;1.23;;
73557;SDS011;61829;53.286;10.434;2023-06-04T07:47:58;1.58;;;1.00;;
73557;SDS011;61829;53.286;10.434;2023-06-04T07:50:24;2.58;;;1.20;;
73557;SDS011;61829;53.286;10.434;2023-06-04T07:52:51;2.35;;;1.10;;
73557;SDS011;61829;53.286;10.434;2023-06-04T07:55:16;2.95;;;1.10;;
73557;SDS011;61829;53.286;10.434;2023-06-04T07:57:42;2.08;;;1.00;;
73557;SDS011;61829;53.286;10.434;2023-06-04T08:00:08;2.03;;;0.90;;
73557;SDS011;61829;53.286;10.434;2023-06-04T08:05:00;2.60;;;0.93;;
73557;SDS011;61829;53.286;10.434;2023-06-04T08:07:29;1.55;;;0.98;;
73557;SDS011;61829;53.286;10.434;2023-06-04T08:09:56;2.00;;;1.10;;
73557;SDS011;61829;53.286;10.434;2023-06-04T08:12:22;2.15;;;1.00;;
73557;SDS011;61829;53.286;10.434;2023-06-04T08:14:48;2.53;;;1.10;;
73557;SDS011;61829;53.286;10.434;2023-06-04T08:17:16;1.35;;;0.90;;
73557;SDS011;61829;53.286;10.434;2023-06-04T08:19:41;2.00;;;1.10;;
73557;SDS011;61829;53.286;10.434;2023-06-04T08:22:07;2.67;;;1.10;;
73557;SDS011;61829;53.286;10.434;2023-06-04T08:24:36;2.65;;;1.20;;
73557;SDS011;61829;53.286;10.434;2023-06-04T08:27:02;2.25;;;1.20;;
73557;SDS011;61829;53.286;10.434;2023-06-04T08:29:29;2.65;;;1.15;;
73557;SDS011;61829;53.286;10.434;2023-06-04T08:31:55;5.00;;;1.10;;
73557;SDS011;61829;53.286;10.434;2023-06-04T08:34:21;1.88;;;1.10;;
73557;SDS011;61829;53.286;10.434;2023-06-04T08:36:47;2.33;;;1.20;;
73557;SDS011;61829;53.286;10.434;2023-06-04T08:39:16;2.10;;;1.10;;
73557;SDS011;61829;53.286;10.434;2023-06-04T08:44:07;1.58;;;1.10;;
73557;SDS011;61829;53.286;10.434;2023-06-04T08:46:37;2.50;;;1.00;;
73557;SDS011;61829;53.286;10.434;2023-06-04T08:49:05;2.22;;;1.00;;
73557;SDS011;61829;53.286;10.434;2023-06-04T08:51:36;1.48;;;1.00;;
73557;SDS011;61829;53.286;10.434;2023-06-04T08:54:06;1.98;;;1.00;;
73557;SDS011;61829;53.286;10.434;2023-06-04T08:56:33;1.90;;;1.20;;
73557;SDS011;61829;53.286;10.434;2023-06-04T08:59:00;1.42;;;1.00;;
73557;SDS011;61829;53.286;10.434;2023-06-04T09:01:34;3.03;;;1.00;;
73557;SDS011;61829;53.286;10.434;2023-06-04T09:04:05;1.80;;;1.05;;
73557;SDS011;61829;53.286;10.434;2023-06-04T09:06:33;1.90;;;1.20;;
73557;SDS011;61829;53.286;10.434;2023-06-04T09:08:59;3.85;;;1.10;;
73557;SDS011;61829;53.286;10.434;2023-06-04T09:11:37;2.95;;;0.80;;
73557;SDS011;61829;53.286;10.434;2023-06-04T09:14:10;2.53;;;1.17;;
73557;SDS011;61829;53.286;10.434;2023-06-04T09:16:43;1.23;;;0.90;;
73557;SDS011;61829;53.286;10.434;2023-06-04T09:19:09;1.83;;;1.10;;
73557;SDS011;61829;53.286;10.434;2023-06-04T09:21:45;1.00;;;0.85;;
73557;SDS011;61829;53.286;10.434;2023-06-04T09:24:24;0.80;;;0.80;;
73557;SDS011;61829;53.286;10.434;2023-06-04T09:27:10;1.60;;;1.10;;
73557;SDS011;61829;53.286;10.434;2023-06-04T09:29:40;1.55;;;1.00;;
73557;SDS011;61829;53.286;10.434;2023-06-04T09:32:24;4.20;;;1.15;;
73557;SDS011;61829;53.286;10.434;2023-06-04T09:34:52;2.13;;;1.05;;
73557;SDS011;61829;53.286;10.434;2023-06-04T09:37:18;1.80;;;0.82;;
73557;SDS011;61829;53.286;10.434;2023-06-04T09:39:54;1.38;;;1.00;;
73557;SDS011;61829;53.286;10.434;2023-06-04T09:42:22;2.78;;;1.00;;
73557;SDS011;61829;53.286;10.434;2023-06-04T09:44:49;3.60;;;1.45;;
73557;SDS011;61829;53.286;10.434;2023-06-04T09:47:15;3.13;;;1.10;;
73557;SDS011;61829;53.286;10.434;2023-06-04T09:49:42;3.00;;;1.20;;
73557;SDS011;61829;53.286;10.434;2023-06-04T09:52:12;2.70;;;1.00;;
73557;SDS011;61829;53.286;10.434;2023-06-04T09:54:39;2.22;;;1.15;;
73557;SDS011;61829;53.286;10.434;2023-06-04T09:57:17;2.85;;;1.20;;
73557;SDS011;61829;53.286;10.434;2023-06-04T09:59:44;1.35;;;0.90;;
73557;SDS011;61829;53.286;10.434;2023-06-04T10:02:14;1.48;;;0.90;;
73557;SDS011;61829;53.286;10.434;2023-06-04T10:04:44;3.40;;;1.05;;
73557;SDS011;61829;53.286;10.434;2023-06-04T10:07:15;1.15;;;0.90;;
73557;SDS011;61829;53.286;10.434;2023-06-04T10:09:43;2.30;;;1.13;;
73557;SDS011;61829;53.286;10.434;2023-06-04T10:12:14;1.77;;;1.05;;
73557;SDS011;61829;53.286;10.434;2023-06-04T10:14:52;3.45;;;1.40;;
73557;SDS011;61829;53.286;10.434;2023-06-04T10:17:22;1.75;;;1.10;;
73557;SDS011;61829;53.286;10.434;2023-06-04T10:19:50;2.72;;;1.05;;
73557;SDS011;61829;53.286;10.434;2023-06-04T10:22:20;3.00;;;1.20;;
73557;SDS011;61829;53.286;10.434;2023-06-04T10:24:47;2.97;;;1.17;;
73557;SDS011;61829;53.286;10.434;2023-06-04T10:27:13;3.17;;;1.38;;
73557;SDS011;61829;53.286;10.434;2023-06-04T10:29:39;5.53;;;1.10;;
73557;SDS011;61829;53.286;10.434;2023-06-04T10:32:08;1.90;;;1.10;;
73557;SDS011;61829;53.286;10.434;2023-06-04T10:34:36;2.38;;;1.10;;
73557;SDS011;61829;53.286;10.434;2023-06-04T10:37:02;1.88;;;1.02;;
73557;SDS011;61829;53.286;10.434;2023-06-04T10:39:29;2.35;;;1.00;;
73557;SDS011;61829;53.286;10.434;2023-06-04T10:42:00;2.63;;;1.10;;
73557;SDS011;61829;53.286;10.434;2023-06-04T10:44:31;3.08;;;1.20;;
73557;SDS011;61829;53.286;10.434;2023-06-04T10:47:17;1.95;;;1.20;;
73557;SDS011;61829;53.286;10.434;2023-06-04T10:49:47;2.22;;;1.17;;
73557;SDS011;61829;53.286;10.434;2023-06-04T10:52:14;1.40;;;0.93;;
73557;SDS011;61829;53.286;10.434;2023-06-04T10:54:41;1.65;;;1.00;;
73557;SDS011;61829;53.286;10.434;2023-06-04T10:57:18;2.33;;;1.20;;
73557;SDS011;61829;53.286;10.434;2023-06-04T10:59:56;4.40;;;1.10;;
73557;SDS011;61829;53.286;10.434;2023-06-04T11:02:24;1.60;;;1.05;;
73557;SDS011;61829;53.286;10.434;2023-06-04T11:05:00;4.18;;;1.20;;
73557;SDS011;61829;53.286;10.434;2023-06-04T11:07:43;2.15;;;1.20;;
73557;SDS011;61829;53.286;10.434;2023-06-04T11:10:11;4.75;;;1.45;;
73557;SDS011;61829;53.286;10.434;2023-06-04T11:12:42;2.80;;;1.27;;
73557;SDS011;61829;53.286;10.434;2023-06-04T11:15:12;4.22;;;1.13;;
73557;SDS011;61829;53.286;10.434;2023-06-04T11:17:50;1.65;;;1.10;;
73557;SDS011;61829;53.286;10.434;2023-06-04T11:20:17;2.97;;;1.20;;
73557;SDS011;61829;53.286;10.434;2023-06-04T11:22:54;1.95;;;1.10;;
73557;SDS011;61829;53.286;10.434;2023-06-04T11:25:25;2.47;;;1.25;;
73557;SDS011;61829;53.286;10.434;2023-06-04T11:27:52;2.50;;;1.23;;
73557;SDS011;61829;53.286;10.434;2023-06-04T11:30:19;3.03;;;1.38;;
73557;SDS011;61829;53.286;10.434;2023-06-04T11:32:48;2.47;;;1.30;;
73557;SDS011;61829;53.286;10.434;2023-06-04T11:35:14;2.13;;;1.15;;
73557;SDS011;61829;53.286;10.434;2023-06-04T11:37:52;2.10;;;1.20;;
73557;SDS011;61829;53.286;10.434;2023-06-04T11:40:20;1.98;;;1.20;;
73557;SDS011;61829;53.286;10.434;2023-06-04T11:42:46;3.28;;;1.40;;
73557;SDS011;61829;53.286;10.434;2023-06-04T11:45:13;2.75;;;1.10;;
73557;SDS011;61829;53.286;10.434;2023-06-04T11:50:13;2.75;;;1.40;;
73557;SDS011;61829;53.286;10.434;2023-06-04T11:52:40;3.20;;;1.38;;
73557;SDS011;61829;53.286;10.434;2023-06-04T11:55:10;5.10;;;1.20;;
73557;SDS011;61829;53.286;10.434;2023-06-04T11:57:38;2.33;;;1.30;;
73557;SDS011;61829;53.286;10.434;2023-06-04T12:00:08;2.22;;;1.10;;
73557;SDS011;61829;53.286;10.434;2023-06-04T12:02:38;2.45;;;1.30;;
73557;SDS011;61829;53.286;10.434;2023-06-04T12:05:14;2.88;;;1.45;;
73557;SDS011;61829;53.286;10.434;2023-06-04T12:07:41;2.35;;;1.38;;
73557;SDS011;61829;53.286;10.434;2023-06-04T12:10:07;2.42;;;1.25;;
73557;SDS011;61829;53.286;10.434;2023-06-04T12:12:34;3.30;;;1.20;;
73557;SDS011;61829;53.286;10.434;2023-06-04T12:15:00;1.90;;;1.30;;
73557;SDS011;61829;53.286;10.434;2023-06-04T12:19:52;2.83;;;1.17;;
73557;SDS011;61829;53.286;10.434;2023-06-04T12:27:16;4.25;;;1.30;;
73557;SDS011;61829;53.286;10.434;2023-06-04T12:29:42;2.60;;;1.23;;
73557;SDS011;61829;53.286;10.434;2023-06-04T12:32:08;3.45;;;1.30;;
73557;SDS011;61829;53.286;10.434;2023-06-04T12:34:37;2.90;;;1.25;;
73557;SDS011;61829;53.286;10.434;2023-06-04T12:37:07;3.38;;;1.30;;
73557;SDS011;61829;53.286;10.434;2023-06-04T12:39:35;5.03;;;1.40;;
73557;SDS011;61829;53.286;10.434;2023-06-04T12:42:02;2.55;;;1.50;;
73557;SDS011;61829;53.286;10.434;2023-06-04T12:44:30;2.45;;;1.30;;
73557;SDS011;61829;53.286;10.434;2023-06-04T12:49:22;1.83;;;1.25;;
73557;SDS011;61829;53.286;10.434;2023-06-04T12:51:48;1.67;;;1.10;;
73557;SDS011;61829;53.286;10.434;2023-06-04T12:54:14;3.58;;;1.27;;
73557;SDS011;61829;53.286;10.434;2023-06-04T12:56:41;2.63;;;1.40;;
73557;SDS011;61829;53.286;10.434;2023-06-04T12:59:08;2.80;;;1.10;;
73557;SDS011;61829;53.286;10.434;2023-06-04T13:01:34;2.97;;;1.38;;
73557;SDS011;61829;53.286;10.434;2023-06-04T13:04:02;2.30;;;1.13;;
73557;SDS011;61829;53.286;10.434;2023-06-04T13:06:29;3.15;;;1.40;;
73557;SDS011;61829;53.286;10.434;2023-06-04T13:11:22;2.40;;;1.40;;
73557;SDS011;61829;53.286;10.434;2023-06-04T13:13:47;2.45;;;1.00;;
73557;SDS011;61829;53.286;10.434;2023-06-04T13:16:14;3.03;;;1.20;;
73557;SDS011;61829;53.286;10.434;2023-06-04T13:18:40;2.97;;;1.50;;
73557;SDS011;61829;53.286;10.434;2023-06-04T13:21:06;4.88;;;1.45;;
73557;SDS011;61829;53.286;10.434;2023-06-04T13:23:32;2.38;;;1.20;;
73557;SDS011;61829;53.286;10.434;2023-06-04T13:25:58;3.60;;;1.30;;
73557;SDS011;61829;53.286;10.434;2023-06-04T13:28:26;3.65;;;1.30;;
73557;SDS011;61829;53.286;10.434;2023-06-04T13:30:53;2.17;;;1.05;;
73557;SDS011;61829;53.286;10.434;2023-06-04T13:33:18;3.95;;;1.23;;
73557;SDS011;61829;53.286;10.434;2023-06-04T13:35:47;5.65;;;1.52;;
73557;SDS011;61829;53.286;10.434;2023-06-04T13:38:16;2.17;;;1.10;;
73557;SDS011;61829;53.286;10.434;2023-06-04T13:40:45;3.67;;;1.35;;
73557;SDS011;61829;53.286;10.434;2023-06-04T13:43:11;2.45;;;1.23;;
73557;SDS011;61829;53.286;10.434;2023-06-04T13:45:37;2.67;;;1.20;;
73557;SDS011;61829;53.286;10.434;2023-06-04T13:48:02;2.15;;;1.38;;
73557;SDS011;61829;53.286;10.434;2023-06-04T13:50:33;4.97;;;1.20;;
73557;SDS011;61829;53.286;10.434;2023-06-04T13:55:25;3.33;;;1.40;;
73557;SDS011;61829;53.286;10.434;2023-06-04T13:57:52;4.60;;;1.35;;
73557;SDS011;61829;53.286;10.434;2023-06-04T14:00:23;2.83;;;1.67;;
73557;SDS011;61829;53.286;10.434;2023-06-04T14:02:49;3.40;;;1.30;;
73557;SDS011;61829;53.286;10.434;2023-06-04T14:05:15;3.30;;;1.20;;
73557;SDS011;61829;53.286;10.434;2023-06-04T14:07:42;4.20;;;1.40;;
73557;SDS011;61829;53.286;10.434;2023-06-04T14:10:09;2.60;;;1.40;;
73557;SDS011;61829;53.286;10.434;2023-06-04T14:12:37;4.15;;;1.50;;
73557;SDS011;61829;53.286;10.434;2023-06-04T14:15:05;2.05;;;1.08;;
73557;SDS011;61829;53.286;10.434;2023-06-04T14:17:32;3.38;;;1.23;;
73557;SDS011;61829;53.286;10.434;2023-06-04T14:20:01;3.10;;;1.38;;
73557;SDS011;61829;53.286;10.434;2023-06-04T14:22:36;4.88;;;1.70;;
73557;SDS011;61829;53.286;10.434;2023-06-04T14:25:04;6.10;;;1.73;;
73557;SDS011;61829;53.286;10.434;2023-06-04T14:27:31;3.80;;;1.55;;
73557;SDS011;61829;53.286;10.434;2023-06-04T14:29:58;3.15;;;1.60;;
73557;SDS011;61829;53.286;10.434;2023-06-04T14:32:24;3.35;;;1.58;;
73557;SDS011;61829;53.286;10.434;2023-06-04T14:34:50;2.78;;;1.42;;
73557;SDS011;61829;53.286;10.434;2023-06-04T14:37:17;3.30;;;1.50;;
73557;SDS011;61829;53.286;10.434;2023-06-04T14:39:45;2.67;;;1.45;;
73557;SDS011;61829;53.286;10.434;2023-06-04T14:42:11;3.08;;;1.52;;
73557;SDS011;61829;53.286;10.434;2023-06-04T14:44:38;3.95;;;1.52;;
73557;SDS011;61829;53.286;10.434;2023-06-04T14:47:04;2.90;;;1.52;;
73557;SDS011;61829;53.286;10.434;2023-06-04T14:49:40;2.40;;;1.30;;
73557;SDS011;61829;53.286;10.434;2023-06-04T14:52:05;3.65;;;1.48;;
73557;SDS011;61829;53.286;10.434;2023-06-04T14:54:32;2.40;;;1.40;;
73557;SDS011;61829;53.286;10.434;2023-06-04T14:56:59;3.50;;;1.67;;
73557;SDS011;61829;53.286;10.434;2023-06-04T14:59:25;3.60;;;1.70;;
73557;SDS011;61829;53.286;10.434;2023-06-04T15:01:52;3.97;;;1.48;;
73557;SDS011;61829;53.286;10.434;2023-06-04T15:04:18;4.50;;;1.52;;
73557;SDS011;61829;53.286;10.434;2023-06-04T15:06:44;3.33;;;1.58;;
73557;SDS011;61829;53.286;10.434;2023-06-04T15:09:10;2.50;;;1.35;;
73557;SDS011;61829;53.286;10.434;2023-06-04T15:11:36;4.07;;;1.50;;
73557;SDS011;61829;53.286;10.434;2023-06-04T15:14:02;3.50;;;1.50;;
73557;SDS011;61829;53.286;10.434;2023-06-04T15:16:28;2.60;;;1.30;;
73557;SDS011;61829;53.286;10.434;2023-06-04T15:18:57;4.10;;;1.45;;
73557;SDS011;61829;53.286;10.434;2023-06-04T15:21:22;3.08;;;1.63;;
73557;SDS011;61829;53.286;10.434;2023-06-04T15:23:48;4.50;;;1.80;;